San Diego, California
Traffic Map
Current Weather Conditions
San Diego, California
Scattered Clouds
Scattered Clouds
70°
Feels Like: 70°
Wind Chill: 70° Ceiling: Unl
Heat Index: 70° Visibility: 9mi
Dew Point: 61° Wind: 0mph
Humidity: 73% Direction: ° ()
Pressure: 29.87in Gusts: 0mph
Raw Report DataKSAN 021351Z 00000KT 9SM SCT020 21/16 A2987 RMK AO2 SLP113 T02110161 $
Traffic Incident Summary
Active as of:
Severity:
Category:
InformationThere was an issue retrieving the traffic information for this location. Please try a different location or try again shortly.
Advertisements
Track Severe Weather on mobile